Time;durP1;ratioP1;P1;durP2;ratioP2;P2;SDS_P1;SDS_P2;PMS_P1;PMS_P2;Temp;Humidity;BMP_temperature;BMP_pressure;BME280_temperature;BME280_humidity;BME280_pressure;Samples;Min_cycle;Max_cycle;Signal;HPM_P1;HPM_P2
2020/12/28 00:00:17;0.00;0.00;0.62;0.00;0.00;0.62;;;;;11.80;1.00;;;;;;2284939;60;2005;-85
2020/12/28 00:02:44;0.00;0.00;0.62;0.00;0.00;0.62;;;;;11.30;1.00;;;;;;2284939;60;1067;-86
2020/12/28 00:05:12;0.00;0.00;0.62;0.00;0.00;0.62;;;;;10.70;1.00;;;;;;2277833;60;1138;-85
2020/12/28 00:07:40;0.00;0.00;0.62;0.00;0.00;0.62;;;;;10.70;1.00;;;;;;2284717;60;1455;-85
2020/12/28 00:10:11;65463.00;0.22;113.92;0.00;0.00;0.62;;;;;10.70;1.00;;;;;;2284988;60;1081;-85
2020/12/28 00:12:50;0.00;0.00;0.62;0.00;0.00;0.62;;;;;11.00;1.00;;;;;;2284950;60;1081;-85
2020/12/28 00:15:21;0.00;0.00;0.62;0.00;0.00;0.62;;;;;10.70;1.00;;;;;;2284431;60;1161;-85
2020/12/28 00:17:49;231297.00;0.77;399.78;86511.00;0.29;150.28;;;;;10.80;1.00;;;;;;2284909;60;1454;-84
2020/12/28 00:20:19;166176.00;0.55;287.68;85248.00;0.28;148.10;;;;;11.10;1.00;;;;;;2281115;60;1996;-84
2020/12/28 00:22:46;174577.00;0.58;302.15;80813.00;0.27;140.44;;;;;11.30;1.00;;;;;;2284929;60;1082;-85
2020/12/28 00:25:15;195778.00;0.65;338.66;86865.00;0.29;150.89;;;;;11.10;1.00;;;;;;2276299;61;1010;-84
2020/12/28 00:27:41;183275.00;0.61;317.13;84355.00;0.28;146.56;;;;;11.30;1.00;;;;;;2268119;61;1299;-85
2020/12/28 00:30:08;168236.00;0.56;291.23;80794.00;0.27;140.41;;;;;11.00;1.00;;;;;;2268143;61;1101;-86
2020/12/28 00:32:35;171466.00;0.57;296.79;84382.00;0.28;146.61;;;;;10.80;1.00;;;;;;2268218;61;1079;-86
2020/12/28 00:35:03;211177.00;0.70;365.16;98213.00;0.33;170.49;;;;;10.50;1.00;;;;;;2268157;61;1133;-85
2020/12/28 00:37:29;172935.00;0.58;299.32;90665.00;0.30;157.46;;;;;10.40;1.00;;;;;;2268086;61;1429;-86
2020/12/28 00:39:56;179123.00;0.60;309.98;79457.00;0.26;138.10;;;;;10.60;1.00;;;;;;2268167;61;2010;-85
2020/12/28 00:42:23;225750.00;0.75;390.24;80968.00;0.27;140.71;;;;;10.60;1.00;;;;;;2268760;61;1014;-86
2020/12/28 00:44:50;169563.00;0.57;293.51;86126.00;0.29;149.62;;;;;10.20;1.00;;;;;;2273884;60;1018;-86
2020/12/28 00:47:16;562297.00;1.87;969.16;188731.00;0.63;326.52;;;;;9.80;1.00;;;;;;2284690;60;1413;-85
2020/12/28 00:49:43;167831.00;0.56;290.53;94783.00;0.32;164.57;;;;;9.60;1.00;;;;;;2284633;60;1144;-86
2020/12/28 00:52:09;190941.00;0.64;330.33;87858.00;0.29;152.61;;;;;9.70;1.00;;;;;;2277750;60;1076;-86
2020/12/28 00:54:36;168395.00;0.56;291.50;84375.00;0.28;146.59;;;;;9.70;1.00;;;;;;2284847;60;1026;-86
2020/12/28 00:57:03;201703.00;0.67;348.86;84812.00;0.28;147.35;;;;;9.80;1.00;;;;;;2281021;60;1359;-86
2020/12/28 00:59:30;166989.00;0.56;289.08;85392.00;0.28;148.35;;;;;10.10;1.00;;;;;;2280995;60;2006;-85
2020/12/28 01:01:58;337463.00;1.12;582.31;80292.00;0.27;139.54;;;;;10.30;1.00;;;;;;2284845;60;1070;-85
2020/12/28 01:04:26;229964.00;0.77;397.49;87361.00;0.29;151.75;;;;;10.60;1.00;;;;;;2284674;60;1076;-85
2020/12/28 01:06:52;225391.00;0.75;389.62;82733.00;0.28;143.76;;;;;10.70;1.00;;;;;;2284824;60;979;-85
2020/12/28 01:09:19;288164.00;0.96;497.57;83632.00;0.28;145.31;;;;;10.90;1.00;;;;;;2280981;60;1556;-85
2020/12/28 01:11:46;270700.00;0.90;467.55;82880.00;0.28;144.01;;;;;10.50;1.00;;;;;;2284582;60;1128;-85
2020/12/28 01:14:13;297926.00;0.99;514.35;82757.00;0.28;143.80;;;;;10.40;1.00;;;;;;2284741;60;1736;-85
2020/12/28 01:16:44;474490.00;1.58;817.92;110604.00;0.37;191.87;;;;;10.50;1.00;;;;;;2284738;60;1730;-85
2020/12/28 01:19:10;352720.00;1.18;608.54;90348.00;0.30;156.91;;;;;10.50;1.00;;;;;;2285195;60;1918;-86
2020/12/28 01:21:37;280045.00;0.93;483.61;83842.00;0.28;145.67;;;;;10.40;1.00;;;;;;2285397;60;1204;-85
2020/12/28 01:24:03;297736.00;0.99;514.03;81708.00;0.27;141.99;;;;;10.30;1.00;;;;;;2285240;60;1186;-85
2020/12/28 01:26:30;237006.00;0.79;409.60;81484.00;0.27;141.60;;;;;10.30;1.00;;;;;;2285459;60;1113;-85
2020/12/28 01:28:56;338868.00;1.13;584.73;86166.00;0.29;149.69;;;;;9.90;1.00;;;;;;2285364;60;1424;-86
2020/12/28 01:31:23;263650.00;0.88;455.43;88662.00;0.30;154.00;;;;;9.80;1.00;;;;;;2285425;60;1109;-85
2020/12/28 01:33:50;377075.00;1.26;650.40;79874.00;0.27;138.82;;;;;9.50;1.00;;;;;;2285442;60;1082;-86
2020/12/28 01:36:17;313566.00;1.05;541.24;87089.00;0.29;151.28;;;;;9.60;1.00;;;;;;2285439;60;1072;-85
2020/12/28 01:38:43;355887.00;1.19;613.98;94956.00;0.32;164.86;;;;;9.70;1.00;;;;;;2285355;60;1907;-85
2020/12/28 01:41:09;264864.00;0.88;457.51;83042.00;0.28;144.29;;;;;9.70;1.00;;;;;;2285443;60;987;-86
2020/12/28 01:43:36;380075.00;1.27;655.55;84068.00;0.28;146.06;;;;;9.90;1.00;;;;;;2285390;60;1177;-85
2020/12/28 01:46:03;351662.00;1.17;606.72;82648.00;0.28;143.61;;;;;9.80;1.00;;;;;;2284892;60;1041;-86
2020/12/28 01:48:31;310707.00;1.04;536.32;80537.00;0.27;139.96;;;;;9.70;1.00;;;;;;2285335;60;1286;-85
2020/12/28 01:50:59;409040.00;1.36;705.35;84508.00;0.28;146.82;;;;;9.40;1.00;;;;;;2285390;60;1128;-85
2020/12/28 01:53:26;294999.00;0.98;509.32;83455.00;0.28;145.00;;;;;9.10;1.00;;;;;;2285360;60;1137;-85
2020/12/28 01:55:58;359503.00;1.20;620.19;82376.00;0.27;143.14;;;;;9.40;1.00;;;;;;2285396;60;1120;-86
2020/12/28 01:58:25;415444.00;1.38;716.36;82134.00;0.27;142.72;;;;;9.00;1.00;;;;;;2285248;60;1994;-85
2020/12/28 02:00:51;508053.00;1.69;875.69;85614.00;0.29;148.73;;;;;8.90;1.00;;;;;;2285377;60;1082;-86
2020/12/28 02:03:18;404936.00;1.35;698.29;82861.00;0.28;143.98;;;;;9.00;1.00;;;;;;2276728;61;1037;-86
2020/12/28 02:05:45;291540.00;0.97;503.38;81249.00;0.27;141.19;;;;;9.00;1.00;;;;;;2276579;61;1170;-85
2020/12/28 02:08:12;412729.00;1.38;711.69;88160.00;0.29;153.13;;;;;9.10;1.00;;;;;;2276739;61;1424;-85
2020/12/28 02:10:39;329792.00;1.10;569.13;84202.00;0.28;146.30;;;;;9.00;1.00;;;;;;2266743;61;1152;-85
2020/12/28 02:13:05;345349.00;1.15;595.87;82930.00;0.28;144.10;;;;;8.90;1.00;;;;;;2276761;61;1065;-85
2020/12/28 02:15:32;452709.00;1.51;780.44;89724.00;0.30;155.83;;;;;9.10;1.00;;;;;;2276758;61;995;-85
2020/12/28 02:17:59;350552.00;1.17;604.81;88895.00;0.30;154.40;;;;;9.30;1.00;;;;;;2276725;61;1528;-84
2020/12/28 02:20:26;373303.00;1.24;643.91;96961.00;0.32;168.33;;;;;9.20;1.00;;;;;;2277773;60;1995;-85
2020/12/28 02:22:53;338254.00;1.13;583.67;86577.00;0.29;150.40;;;;;9.30;1.00;;;;;;2285320;60;985;-85
2020/12/28 02:25:19;402134.00;1.34;693.47;88320.00;0.29;153.41;;;;;9.70;1.00;;;;;;2278206;60;1047;-85
2020/12/28 02:27:46;346072.00;1.15;597.11;87796.00;0.29;152.50;;;;;9.20;1.00;;;;;;2285248;60;1406;-85
2020/12/28 02:30:12;345507.00;1.15;596.14;86061.00;0.29;149.51;;;;;9.20;1.00;;;;;;2285190;60;1137;-85
2020/12/28 02:32:39;330264.00;1.10;569.94;86816.00;0.29;150.81;;;;;9.70;1.00;;;;;;2285266;60;1129;-86
2020/12/28 02:35:06;338090.00;1.13;583.39;81276.00;0.27;141.24;;;;;9.70;1.00;;;;;;2285313;60;964;-87
2020/12/28 02:37:33;385894.00;1.29;665.56;79447.00;0.26;138.08;;;;;9.70;1.00;;;;;;2285115;60;1371;-85
2020/12/28 02:40:00;426768.00;1.42;735.83;85218.00;0.28;148.05;;;;;10.00;1.00;;;;;;2285198;60;1915;-83
2020/12/28 02:42:26;307718.00;1.03;531.19;81986.00;0.27;142.47;;;;;10.30;1.00;;;;;;2285252;60;1042;-84
2020/12/28 02:44:55;365982.00;1.22;631.33;91138.00;0.30;158.27;;;;;10.70;1.00;;;;;;2285227;60;1027;-84
2020/12/28 02:47:21;486334.00;1.62;838.30;84282.00;0.28;146.43;;;;;10.70;1.00;;;;;;2284682;60;1731;-83
2020/12/28 02:49:48;616017.00;2.05;1061.88;79122.00;0.26;137.52;;;;;10.80;1.00;;;;;;2278148;60;1040;-84
2020/12/28 02:52:14;514008.00;1.71;885.94;99151.00;0.33;172.11;;;;;10.70;1.00;;;;;;2285153;60;1128;-84
2020/12/28 02:54:41;437980.00;1.46;755.11;89644.00;0.30;155.69;;;;;10.80;1.00;;;;;;2285221;60;1097;-84
2020/12/28 02:57:08;422496.00;1.41;728.48;88752.00;0.30;154.15;;;;;11.00;1.00;;;;;;2285186;60;1318;-84
2020/12/28 02:59:35;117818336.00;392.73;66247784.00;85963.00;0.29;149.34;;;;;11.10;1.00;;;;;;2285095;60;1981;-84
2020/12/28 03:02:01;298102.00;0.99;514.66;87426.00;0.29;151.86;;;;;11.30;1.00;;;;;;2285140;60;1168;-84
2020/12/28 03:04:28;369659.00;1.23;637.65;84335.00;0.28;146.52;;;;;11.70;1.00;;;;;;2278055;60;1159;-85
2020/12/28 03:06:54;365457.00;1.22;630.43;77243.00;0.26;134.27;;;;;11.40;1.00;;;;;;2278058;60;1094;-84
2020/12/28 03:09:21;290224.00;0.97;501.11;90708.00;0.30;157.53;;;;;11.10;1.00;;;;;;2285150;60;1068;-83
2020/12/28 03:11:47;383266.00;1.28;661.04;85874.00;0.29;149.18;;;;;11.10;1.00;;;;;;2285150;60;1122;-84
2020/12/28 03:14:15;399001.00;1.33;688.09;86884.00;0.29;150.93;;;;;11.20;1.00;;;;;;2285140;60;1051;-84
2020/12/28 03:16:42;367357.00;1.22;633.69;78488.00;0.26;136.43;;;;;11.30;1.00;;;;;;2285069;60;1144;-84
2020/12/28 03:19:09;348736.00;1.16;601.69;80670.00;0.27;140.19;;;;;11.20;1.00;;;;;;2284976;60;1911;-84
2020/12/28 03:21:36;385625.00;1.29;665.09;86916.00;0.29;150.98;;;;;11.30;1.00;;;;;;2285109;60;1077;-85
2020/12/28 03:24:02;655187.00;2.18;1129.61;154984.00;0.52;268.40;;;;;11.60;1.00;;;;;;2285112;60;1075;-84
2020/12/28 03:26:29;281748.00;0.94;486.54;89232.00;0.30;154.98;;;;;11.40;1.00;;;;;;2285111;60;1040;-84
2020/12/28 03:28:55;321397.00;1.07;554.70;80986.00;0.27;140.74;;;;;11.00;1.00;;;;;;2285013;60;1497;-84
2020/12/28 03:31:27;371757.00;1.24;641.26;80697.00;0.27;140.24;;;;;10.80;1.00;;;;;;2285101;60;972;-84
2020/12/28 03:33:53;362883.00;1.21;626.00;84150.00;0.28;146.21;;;;;10.70;1.00;;;;;;2285058;60;1142;-84
2020/12/28 03:36:20;450779.00;1.50;777.12;98284.00;0.33;170.61;;;;;10.90;1.00;;;;;;2285062;60;1048;-84
2020/12/28 03:38:46;446113.00;1.49;769.10;79196.00;0.26;137.65;;;;;11.10;1.00;;;;;;2284950;60;2011;-84
2020/12/28 03:41:13;364230.00;1.21;628.32;84670.00;0.28;147.10;;;;;11.50;1.00;;;;;;2284851;60;1078;-85
2020/12/28 03:43:40;557922.00;1.86;961.62;83029.00;0.28;144.27;;;;;11.70;1.00;;;;;;2284993;60;1592;-84
2020/12/28 03:46:07;537536.00;1.79;926.48;87432.00;0.29;151.87;;;;;11.90;1.00;;;;;;2285034;60;978;-84
2020/12/28 03:48:34;550485.00;1.83;948.80;104761.00;0.35;181.79;;;;;12.10;1.00;;;;;;2284998;60;1429;-85
2020/12/28 03:51:01;393563.00;1.31;678.74;78022.00;0.26;135.62;;;;;12.30;1.00;;;;;;2285009;60;1044;-86
2020/12/28 03:53:27;627360.00;2.09;1081.49;91109.00;0.30;158.22;;;;;12.40;1.00;;;;;;2285042;60;1082;-84
2020/12/28 03:55:54;504148.00;1.68;868.97;92474.00;0.31;160.58;;;;;12.60;1.00;;;;;;2285035;60;1047;-85
2020/12/28 03:58:21;566678.00;1.89;976.72;95379.00;0.32;165.59;;;;;12.70;1.00;;;;;;2284925;60;1911;-85
2020/12/28 04:00:47;547603.00;1.83;943.83;83392.00;0.28;144.90;;;;;12.70;1.00;;;;;;2284913;60;1056;-85
2020/12/28 04:03:14;445222.00;1.48;767.56;83319.00;0.28;144.77;;;;;12.90;1.00;;;;;;2285012;60;985;-86
2020/12/28 04:05:41;442129.00;1.47;762.24;83123.00;0.28;144.43;;;;;13.00;1.00;;;;;;2284960;60;1205;-85
2020/12/28 04:08:08;443028.00;1.48;763.79;82904.00;0.28;144.05;;;;;12.70;1.00;;;;;;2284924;60;1431;-86
2020/12/28 04:10:34;680687.00;2.27;1173.76;129879.00;0.43;225.12;;;;;12.70;1.00;;;;;;2284983;60;990;-86
2020/12/28 04:13:01;577010.00;1.92;994.54;81872.00;0.27;142.27;;;;;12.70;1.00;;;;;;2284962;60;1078;-85
2020/12/28 04:15:27;430103.00;1.43;741.56;82320.00;0.27;143.04;;;;;12.60;1.00;;;;;;2284948;60;1055;-85
2020/12/28 04:17:54;263512.00;0.88;455.19;87357.00;0.29;151.74;;;;;12.60;1.00;;;;;;2284874;60;1901;-84
2020/12/28 04:20:20;309314.00;1.03;533.93;82744.00;0.28;143.78;;;;;12.30;1.00;;;;;;2284854;60;1929;-85
2020/12/28 04:22:48;340764.00;1.14;587.99;83206.00;0.28;144.57;;;;;11.90;1.00;;;;;;2284949;60;1060;-85
2020/12/28 04:25:15;259180.00;0.86;447.74;79735.00;0.27;138.58;;;;;11.90;1.00;;;;;;2284928;60;977;-84
2020/12/28 04:27:42;602776.00;2.01;1039.01;94688.00;0.32;164.40;;;;;11.80;1.00;;;;;;2284837;60;1299;-83
2020/12/28 04:30:09;448700.00;1.50;773.55;92521.00;0.31;160.66;;;;;11.50;1.00;;;;;;2284751;60;1077;-84
2020/12/28 04:32:35;431597.00;1.44;744.13;88694.00;0.30;154.05;;;;;11.30;1.00;;;;;;2284918;60;1098;-86
2020/12/28 04:35:02;412834.00;1.38;711.87;91821.00;0.31;159.45;;;;;11.30;1.00;;;;;;2284899;60;1061;-85
2020/12/28 04:37:29;465209.00;1.55;801.95;92116.00;0.31;159.96;;;;;11.70;1.00;;;;;;2284860;60;1399;-84
2020/12/28 04:39:56;506389.00;1.69;872.82;90856.00;0.30;157.79;;;;;11.70;1.00;;;;;;2284834;60;2052;-85
2020/12/28 04:42:24;414745.00;1.38;715.16;88439.00;0.29;153.61;;;;;11.80;1.00;;;;;;2284801;60;1641;-85
2020/12/28 04:44:50;463448.00;1.54;798.92;87741.00;0.29;152.41;;;;;11.80;1.00;;;;;;2276230;61;1026;-85
2020/12/28 04:47:17;412649.00;1.38;711.55;89802.00;0.30;155.97;;;;;11.90;1.00;;;;;;2266250;61;1450;-85
2020/12/28 04:49:46;447777.00;1.49;771.96;85528.00;0.29;148.59;;;;;12.00;1.00;;;;;;2276197;61;1075;-84
2020/12/28 04:52:13;458753.00;1.53;790.84;89580.00;0.30;155.58;;;;;12.00;1.00;;;;;;2273016;61;1007;-85
2020/12/28 04:54:40;337040.00;1.12;581.59;86984.00;0.29;151.10;;;;;12.00;1.00;;;;;;2277034;61;1024;-85
2020/12/28 04:57:08;564100.00;1.88;972.27;88068.00;0.29;152.97;;;;;11.90;1.00;;;;;;2272834;61;1430;-85
2020/12/28 04:59:35;401134.00;1.34;691.75;84365.00;0.28;146.58;;;;;11.80;1.00;;;;;;2272908;61;1947;-83
2020/12/28 05:02:02;475868.00;1.59;820.29;89218.00;0.30;154.96;;;;;11.40;1.00;;;;;;2263428;61;1136;-84
2020/12/28 05:04:28;433354.00;1.44;747.15;82410.00;0.27;143.20;;;;;11.40;1.00;;;;;;2273550;61;1046;-83
2020/12/28 05:06:56;481698.00;1.61;830.32;82036.00;0.27;142.55;;;;;11.30;1.00;;;;;;2273576;61;1081;-84
2020/12/28 05:09:23;301991.00;1.01;521.34;91741.00;0.31;159.31;;;;;11.30;1.00;;;;;;2276949;61;1028;-84
2020/12/28 05:11:52;327306.00;1.09;564.86;91828.00;0.31;159.46;;;;;11.60;1.00;;;;;;2268750;61;1040;-83
2020/12/28 05:14:20;243788.00;0.81;421.27;90168.00;0.30;156.60;;;;;11.70;1.00;;;;;;2270017;61;1084;-85
2020/12/28 05:16:47;350003.00;1.17;603.87;89274.00;0.30;155.05;;;;;11.60;1.00;;;;;;2276874;61;994;-85
2020/12/28 05:19:14;211312.00;0.70;365.39;85731.00;0.29;148.94;;;;;11.80;1.00;;;;;;2276848;61;1911;-85
2020/12/28 05:21:42;189602.00;0.63;328.02;88825.00;0.30;154.28;;;;;11.80;1.00;;;;;;2272789;61;1049;-86
2020/12/28 05:24:12;215826.00;0.72;373.16;87718.00;0.29;152.37;;;;;12.00;1.00;;;;;;2272753;61;1527;-85
2020/12/28 05:26:41;284583.00;0.95;491.42;90440.00;0.30;157.07;;;;;11.70;1.00;;;;;;2272813;61;1101;-86
2020/12/28 05:29:12;258205.00;0.86;446.06;84466.00;0.28;146.75;;;;;11.70;1.00;;;;;;2273567;61;1465;-84
2020/12/28 05:31:40;261256.00;0.87;451.31;84724.00;0.28;147.20;;;;;11.80;1.00;;;;;;2276367;61;1114;-85
2020/12/28 05:34:12;247770.00;0.83;428.12;84321.00;0.28;146.50;;;;;12.20;1.00;;;;;;2276890;61;1063;-84
2020/12/28 05:36:39;339233.00;1.13;585.36;80663.00;0.27;140.18;;;;;12.20;1.00;;;;;;2268714;61;1080;-84
2020/12/28 05:39:06;303596.00;1.01;524.10;89169.00;0.30;154.87;;;;;11.80;1.00;;;;;;2270672;61;1910;-83
2020/12/28 05:41:32;292003.00;0.97;504.17;86786.00;0.29;150.76;;;;;11.40;1.00;;;;;;2273471;61;1150;-83
2020/12/28 05:44:09;296911.00;0.99;512.61;89274.00;0.30;155.05;;;;;11.60;1.00;;;;;;2276888;61;1126;-84
2020/12/28 05:46:37;497308.00;1.66;857.19;79238.00;0.26;137.72;;;;;11.50;1.00;;;;;;2276805;61;1118;-83
2020/12/28 05:49:10;303882.00;1.01;524.59;95618.00;0.32;166.01;;;;;11.50;1.00;;;;;;2270089;61;1350;-83
2020/12/28 05:51:36;430654.00;1.44;742.51;86325.00;0.29;149.96;;;;;11.60;1.00;;;;;;2270077;61;1162;-84
2020/12/28 05:54:12;357868.00;1.19;617.38;87167.00;0.29;151.42;;;;;11.70;1.00;;;;;;2268806;60;1118;-83
2020/12/28 05:56:44;377750.00;1.26;651.56;0.00;0.00;0.62;;;;;11.80;1.00;;;;;;2276756;61;1002;-84
2020/12/28 05:59:12;288629.00;0.96;498.37;0.00;0.00;0.62;;;;;11.70;1.00;;;;;;2269995;61;2010;-84
2020/12/28 06:01:44;257058.00;0.86;444.09;0.00;0.00;0.62;;;;;11.80;1.00;;;;;;2270063;61;1151;-84
2020/12/28 06:04:15;104318.00;0.35;181.02;0.00;0.00;0.62;;;;;11.60;1.00;;;;;;2269955;61;1138;-84
2020/12/28 06:06:43;507256.00;1.69;874.32;146187.00;0.49;253.24;;;;;11.70;1.00;;;;;;2276735;61;1122;-84
2020/12/28 06:09:10;31339.00;0.10;54.90;0.00;0.00;0.62;;;;;12.00;1.00;;;;;;2270037;61;1449;-84
2020/12/28 06:11:37;228299.00;0.76;394.62;0.00;0.00;0.62;;;;;12.20;1.00;;;;;;2276783;61;1102;-84
2020/12/28 06:14:16;154524.00;0.52;267.60;0.00;0.00;0.62;;;;;12.20;1.00;;;;;;2278761;60;1036;-84
2020/12/28 06:16:44;134287.00;0.45;232.72;0.00;0.00;0.62;;;;;12.40;1.00;;;;;;2285194;60;1120;-83
2020/12/28 06:19:21;213840.00;0.71;369.74;0.00;0.00;0.62;;;;;12.20;1.00;;;;;;2281450;60;2002;-84
2020/12/28 06:21:48;158755.00;0.53;274.89;0.00;0.00;0.62;;;;;12.30;1.00;;;;;;2285296;60;1053;-84
2020/12/28 06:24:25;192226.00;0.64;332.54;0.00;0.00;0.62;;;;;12.40;1.00;;;;;;2281547;60;1026;-86
2020/12/28 06:27:03;15061.00;0.05;26.72;0.00;0.00;0.62;;;;;12.40;1.00;;;;;;2278156;60;1028;-85
2020/12/28 06:29:30;86815.00;0.29;150.81;0.00;0.00;0.62;;;;;12.10;1.00;;;;;;2278150;60;1131;-84
2020/12/28 06:31:56;80908.00;0.27;140.61;0.00;0.00;0.62;;;;;11.90;1.00;;;;;;2281482;60;1062;-84
2020/12/28 06:34:24;59164.00;0.20;103.03;0.00;0.00;0.62;;;;;12.20;1.00;;;;;;2285283;60;1014;-85
2020/12/28 06:37:00;229617.00;0.77;396.89;0.00;0.00;0.62;;;;;12.30;1.00;;;;;;2285268;60;1036;-83
2020/12/28 06:39:27;98481.00;0.33;170.95;0.00;0.00;0.62;;;;;12.30;1.00;;;;;;2274762;60;2006;-84
2020/12/28 06:41:53;108983.00;0.36;189.08;0.00;0.00;0.62;;;;;12.40;1.00;;;;;;2285226;60;1071;-84
2020/12/28 06:44:27;25318.00;0.08;44.48;0.00;0.00;0.62;;;;;12.30;1.00;;;;;;2274781;60;948;-84
2020/12/28 06:46:54;208166.00;0.69;359.98;0.00;0.00;0.62;;;;;12.20;1.00;;;;;;2285224;60;997;-84
2020/12/28 06:49:20;123673.00;0.41;214.42;0.00;0.00;0.62;;;;;12.40;1.00;;;;;;2285162;60;1434;-84
2020/12/28 06:51:48;179942.00;0.60;311.39;0.00;0.00;0.62;;;;;12.30;1.00;;;;;;2285197;60;1067;-84
2020/12/28 06:54:21;361811.00;1.21;624.16;0.00;0.00;0.62;;;;;12.30;1.00;;;;;;2281428;60;1143;-84
2020/12/28 06:56:48;216056.00;0.72;373.56;0.00;0.00;0.62;;;;;12.20;1.00;;;;;;2278088;60;1130;-84
2020/12/28 06:59:15;128903.00;0.43;223.44;0.00;0.00;0.62;;;;;12.10;1.00;;;;;;2281400;61;2016;-84
2020/12/28 07:01:46;271427.00;0.90;468.80;0.00;0.00;0.62;;;;;12.00;1.00;;;;;;2278091;60;1266;-84
2020/12/28 07:04:14;109420.00;0.36;189.83;0.00;0.00;0.62;;;;;11.70;1.00;;;;;;2281439;60;1144;-83
2020/12/28 07:06:41;130674.00;0.44;226.49;0.00;0.00;0.62;;;;;11.70;1.00;;;;;;2285141;60;1109;-85
2020/12/28 07:09:09;98051.00;0.33;170.21;0.00;0.00;0.62;;;;;11.80;1.00;;;;;;2284983;60;1434;-85
2020/12/28 07:11:36;392414.00;1.31;676.76;0.00;0.00;0.62;;;;;11.90;1.00;;;;;;2274731;60;950;-84
2020/12/28 07:14:04;252331.00;0.84;435.96;0.00;0.00;0.62;;;;;12.00;1.00;;;;;;2285146;60;1066;-84
2020/12/28 07:16:31;169788.00;0.57;293.90;0.00;0.00;0.62;;;;;12.30;1.00;;;;;;2281088;60;1140;-84
2020/12/28 07:19:02;175614.00;0.59;303.94;0.00;0.00;0.62;;;;;12.40;1.00;;;;;;2274586;60;1923;-85
2020/12/28 07:21:29;213709.00;0.71;369.52;0.00;0.00;0.62;;;;;12.40;1.00;;;;;;2281356;60;1057;-84
2020/12/28 07:23:56;601660.00;2.01;1037.09;0.00;0.00;0.62;;;;;12.50;1.00;;;;;;2281334;60;1041;-84
2020/12/28 07:26:24;106957.00;0.36;185.58;0.00;0.00;0.62;;;;;12.50;1.00;;;;;;2277964;61;1060;-83
2020/12/28 07:28:50;228157.00;0.76;394.38;0.00;0.00;0.62;;;;;12.30;1.00;;;;;;2281239;60;1463;-84
2020/12/28 07:31:21;248292.00;0.83;429.01;0.00;0.00;0.62;;;;;11.70;1.00;;;;;;2277948;60;1052;-84
2020/12/28 07:33:49;455698.00;1.52;785.58;0.00;0.00;0.62;;;;;11.40;1.00;;;;;;2277957;60;1216;-84
2020/12/28 07:36:18;292169.00;0.97;504.46;0.00;0.00;0.62;;;;;11.20;1.00;;;;;;2285058;60;1070;-84
2020/12/28 07:38:46;214518.00;0.72;370.91;0.00;0.00;0.62;;;;;10.70;1.00;;;;;;2281183;60;2002;-84
2020/12/28 07:41:17;325530.00;1.09;561.80;0.00;0.00;0.62;;;;;10.90;1.00;;;;;;2277894;60;1057;-84
2020/12/28 07:43:51;603411.00;2.01;1040.11;0.00;0.00;0.62;;;;;11.10;1.00;;;;;;2284968;60;1777;-84
2020/12/28 07:46:27;105885.00;0.35;183.73;0.00;0.00;0.62;;;;;11.30;1.00;;;;;;2281268;60;952;-84
2020/12/28 07:48:56;4309.00;0.01;8.09;0.00;0.00;0.62;;;;;11.50;1.00;;;;;;2281237;60;1505;-84
2020/12/28 07:51:25;277727.00;0.93;479.63;0.00;0.00;0.62;;;;;11.50;1.00;;;;;;2281276;60;993;-84
2020/12/28 07:54:01;387980.00;1.29;669.14;83455.00;0.28;145.00;;;;;11.50;1.00;;;;;;2281227;60;1085;-84
2020/12/28 07:56:38;164103.00;0.55;284.11;0.00;0.00;0.62;;;;;10.90;1.00;;;;;;2285009;60;1099;-86
2020/12/28 07:59:19;216089.00;0.72;373.61;0.00;0.00;0.62;;;;;9.80;1.00;;;;;;2284949;60;2008;-85
2020/12/28 08:01:52;19497.00;0.06;34.40;0.00;0.00;0.62;;;;;9.90;1.00;;;;;;2284995;60;1091;-85
2020/12/28 08:04:23;396292.00;1.32;683.43;86662.00;0.29;150.54;;;;;10.10;1.00;;;;;;2284877;60;1145;-84
2020/12/28 08:06:49;258463.00;0.86;446.51;83344.00;0.28;144.81;;;;;10.70;1.00;;;;;;2284903;60;999;-84
2020/12/28 08:09:22;279611.00;0.93;482.87;81181.00;0.27;141.08;;;;;10.80;1.00;;;;;;2284880;60;1342;-84
2020/12/28 08:11:57;270728.00;0.90;467.60;88449.00;0.29;153.63;;;;;11.20;1.00;;;;;;2280331;61;1004;-84
2020/12/28 08:14:25;408822.00;1.36;704.97;83204.00;0.28;144.57;;;;;11.30;1.00;;;;;;2280434;61;1007;-84
2020/12/28 08:16:52;344654.00;1.15;594.67;82628.00;0.28;143.58;;;;;11.80;1.00;;;;;;2276947;61;1020;-85
2020/12/28 08:19:26;310619.00;1.04;536.17;83068.00;0.28;144.34;;;;;11.50;1.00;;;;;;2273586;61;1943;-85
2020/12/28 08:21:52;499174.00;1.66;860.40;88848.00;0.30;154.32;;;;;11.70;1.00;;;;;;2280426;61;1008;-86
2020/12/28 08:24:20;382555.00;1.28;659.82;85609.00;0.29;148.73;;;;;11.90;1.00;;;;;;2273581;61;981;-85
2020/12/28 08:26:48;411330.00;1.37;709.28;81990.00;0.27;142.47;;;;;11.60;1.00;;;;;;2273491;61;1090;-84
2020/12/28 08:29:15;300322.00;1.00;518.47;83306.00;0.28;144.75;;;;;11.90;1.00;;;;;;2277697;60;1327;-84
2020/12/28 08:31:43;293613.00;0.98;506.94;109042.00;0.36;189.18;;;;;12.10;1.00;;;;;;2281039;60;1136;-85
2020/12/28 08:34:12;265686.00;0.89;458.93;88053.00;0.29;152.95;;;;;12.00;1.00;;;;;;2281047;60;999;-85
2020/12/28 08:36:41;261275.00;0.87;451.34;82857.00;0.28;143.97;;;;;11.80;1.00;;;;;;2281041;60;1092;-86
2020/12/28 08:39:12;264416.00;0.88;456.74;81846.00;0.27;142.23;;;;;11.60;1.00;;;;;;2277503;60;2006;-85
2020/12/28 08:41:39;376816.00;1.26;649.95;87961.00;0.29;152.79;;;;;11.80;1.00;;;;;;2277593;60;1092;-85
2020/12/28 08:44:06;295329.00;0.98;509.89;83207.00;0.28;144.58;;;;;12.00;1.00;;;;;;2274287;60;1045;-86
2020/12/28 08:46:32;171236.00;0.57;296.40;90923.00;0.30;157.90;;;;;11.40;1.00;;;;;;2277672;60;1039;-85
2020/12/28 08:49:00;174668.00;0.58;302.31;80259.00;0.27;139.48;;;;;11.60;1.00;;;;;;2284738;60;1431;-86
2020/12/28 08:51:30;179805.00;0.60;311.15;88483.00;0.29;153.69;;;;;11.90;1.00;;;;;;2284836;60;1097;-85
2020/12/28 08:53:57;189867.00;0.63;328.48;88312.00;0.29;153.39;;;;;12.00;1.00;;;;;;2284850;60;1037;-84
2020/12/28 08:56:23;241825.00;0.81;417.89;86034.00;0.29;149.46;;;;;11.70;1.00;;;;;;2284778;60;988;-84
2020/12/28 08:58:50;395432.00;1.32;681.95;148687.00;0.50;257.54;;;;;11.50;1.00;;;;;;2284748;60;1911;-84
2020/12/28 09:01:16;62337.00;0.21;108.52;0.00;0.00;0.62;;;;;11.70;1.00;;;;;;2284827;60;1031;-83
2020/12/28 09:03:43;0.00;0.00;0.62;0.00;0.00;0.62;;;;;11.50;1.00;;;;;;2284770;60;1132;-84
2020/12/28 09:06:12;0.00;0.00;0.62;0.00;0.00;0.62;;;;;11.30;1.00;;;;;;2284649;60;1546;-87
2020/12/28 09:08:38;0.00;0.00;0.62;0.00;0.00;0.62;;;;;11.10;1.00;;;;;;2284744;60;1393;-85
2020/12/28 09:11:06;0.00;0.00;0.62;0.00;0.00;0.62;;;;;11.00;1.00;;;;;;2281054;60;1146;-87
2020/12/28 09:13:33;0.00;0.00;0.62;0.00;0.00;0.62;;;;;11.20;1.00;;;;;;2280249;61;1035;-86
2020/12/28 09:15:59;0.00;0.00;0.62;0.00;0.00;0.62;;;;;11.20;1.00;;;;;;2273527;61;1162;-85
2020/12/28 09:18:26;0.00;0.00;0.62;0.00;0.00;0.62;;;;;11.20;1.00;;;;;;2276794;61;1359;-87
2020/12/28 09:20:52;19523.00;0.07;34.44;0.00;0.00;0.62;;;;;10.80;1.00;;;;;;2273500;61;2009;-87
2020/12/28 09:23:19;0.00;0.00;0.62;0.00;0.00;0.62;;;;;10.40;1.00;;;;;;2270215;61;1038;-87
2020/12/28 09:25:46;175042.00;0.58;302.95;24834.00;0.08;43.64;;;;;10.60;1.00;;;;;;2273224;61;1037;-86
2020/12/28 09:28:12;0.00;0.00;0.62;0.00;0.00;0.62;;;;;10.60;1.00;;;;;;2273474;61;1436;-86
2020/12/28 09:30:39;0.00;0.00;0.62;0.00;0.00;0.62;;;;;10.70;1.00;;;;;;2273972;60;1119;-85
2020/12/28 09:33:05;8168.00;0.03;14.78;0.00;0.00;0.62;;;;;10.80;1.00;;;;;;2284744;60;1046;-87
2020/12/28 09:35:31;0.00;0.00;0.62;0.00;0.00;0.62;;;;;10.70;1.00;;;;;;2274297;60;1021;-87
2020/12/28 09:37:58;0.00;0.00;0.62;0.00;0.00;0.62;;;;;10.80;1.00;;;;;;2277507;60;1323;-86
2020/12/28 09:40:25;0.00;0.00;0.62;0.00;0.00;0.62;;;;;10.50;1.00;;;;;;2278129;60;2000;-86
2020/12/28 09:42:52;296.00;0.00;1.13;0.00;0.00;0.62;;;;;10.60;1.00;;;;;;2278060;60;1041;-87